createdAt,value
2022-08-23T00:00:13.952Z,0.00
2022-08-23T00:01:13.942Z,0.00
2022-08-23T00:02:23.878Z,0.00
2022-08-23T00:03:14.998Z,0.00
2022-08-23T00:04:13.919Z,0.00
2022-08-23T00:05:13.919Z,0.00
2022-08-23T00:06:13.890Z,0.00
2022-08-23T00:07:13.904Z,0.00
2022-08-23T00:08:13.879Z,0.00
2022-08-23T00:09:13.879Z,0.00
2022-08-23T00:10:14.047Z,0.00
2022-08-23T00:11:13.836Z,0.00
2022-08-23T00:12:13.812Z,0.00
2022-08-23T00:13:13.814Z,0.00
2022-08-23T00:14:13.795Z,0.00
2022-08-23T00:15:13.818Z,0.00
2022-08-23T00:16:13.781Z,0.00
2022-08-23T00:17:33.278Z,0.00
2022-08-23T00:18:14.765Z,0.00
2022-08-23T00:19:13.756Z,0.00
2022-08-23T00:20:13.729Z,0.00
2022-08-23T00:21:13.747Z,0.00
2022-08-23T00:22:13.720Z,0.00
2022-08-23T00:23:13.730Z,0.00
2022-08-23T00:24:13.690Z,0.00
2022-08-23T00:25:14.422Z,0.00
2022-08-23T00:26:14.417Z,0.00
2022-08-23T00:27:13.965Z,0.00
2022-08-23T00:28:14.834Z,0.00
2022-08-23T00:29:13.639Z,0.00
2022-08-23T00:30:16.422Z,0.00
2022-08-23T00:31:13.616Z,0.00
2022-08-23T00:32:13.605Z,0.00
2022-08-23T00:33:13.984Z,0.00
2022-08-23T00:34:13.589Z,0.00
2022-08-23T00:35:26.292Z,0.00
2022-08-23T00:36:14.567Z,0.00
2022-08-23T00:37:13.556Z,0.00
2022-08-23T00:38:32.402Z,0.00
2022-08-23T00:39:15.454Z,0.00
2022-08-23T00:40:13.618Z,0.00
2022-08-23T00:41:13.512Z,0.00
2022-08-23T00:42:13.498Z,0.00
2022-08-23T00:43:14.424Z,0.00
2022-08-23T00:44:13.466Z,0.00
2022-08-23T00:45:13.470Z,0.00
2022-08-23T00:46:14.436Z,0.00
2022-08-23T00:47:13.438Z,0.00
2022-08-23T00:48:13.416Z,0.00
2022-08-23T00:49:13.403Z,0.00
2022-08-23T00:50:23.864Z,0.00
2022-08-23T00:51:14.457Z,0.00
2022-08-23T00:52:13.389Z,0.00
2022-08-23T00:53:13.928Z,0.00
2022-08-23T00:54:13.355Z,0.00
2022-08-23T00:55:13.360Z,0.00
2022-08-23T00:56:13.340Z,0.00
2022-08-23T00:57:13.927Z,0.00
2022-08-23T00:58:13.313Z,0.00
2022-08-23T00:59:13.931Z,0.00
2022-08-23T01:00:13.313Z,0.00
2022-08-23T01:01:13.927Z,0.00
2022-08-23T01:02:13.364Z,0.00
2022-08-23T01:03:13.253Z,0.00
2022-08-23T01:04:13.267Z,0.00
2022-08-23T01:05:13.937Z,0.00
2022-08-23T01:06:13.926Z,0.00
2022-08-23T01:07:13.215Z,0.00
2022-08-23T01:08:13.197Z,0.00
2022-08-23T01:09:13.190Z,0.00
2022-08-23T01:10:20.099Z,0.00
2022-08-23T01:11:14.178Z,0.00
2022-08-23T01:12:13.939Z,0.00
2022-08-23T01:13:13.169Z,0.00
2022-08-23T01:14:13.927Z,0.00
2022-08-23T01:15:13.131Z,0.00
2022-08-23T01:16:13.139Z,0.00
2022-08-23T01:17:13.941Z,0.00
2022-08-23T01:18:13.089Z,0.00
2022-08-23T01:19:19.928Z,0.00
2022-08-23T01:20:13.078Z,0.00
2022-08-23T01:21:13.067Z,0.00
2022-08-23T01:22:13.066Z,0.00
2022-08-23T01:23:13.047Z,0.00
2022-08-23T01:24:19.267Z,0.00
2022-08-23T01:25:14.934Z,0.00
2022-08-23T01:26:13.010Z,0.00
2022-08-23T01:27:13.954Z,0.00
2022-08-23T01:28:13.004Z,0.00
2022-08-23T01:29:12.983Z,0.00
2022-08-23T01:30:12.971Z,0.00
2022-08-23T01:31:13.944Z,0.00
2022-08-23T01:32:19.933Z,0.00
2022-08-23T01:33:12.939Z,0.00
2022-08-23T01:34:12.935Z,0.00
2022-08-23T01:35:12.966Z,0.00
2022-08-23T01:36:12.925Z,0.00
2022-08-23T01:37:12.896Z,0.00
2022-08-23T01:38:12.904Z,0.00
2022-08-23T01:39:12.870Z,0.00
2022-08-23T01:40:19.502Z,0.00
2022-08-23T01:41:12.868Z,0.00
2022-08-23T01:42:12.850Z,0.00
2022-08-23T01:43:13.428Z,0.00
2022-08-23T01:44:12.827Z,0.00
2022-08-23T01:45:13.445Z,0.00
2022-08-23T01:46:12.809Z,0.00
2022-08-23T01:47:12.796Z,0.00
2022-08-23T01:48:12.774Z,0.00
2022-08-23T01:49:12.772Z,0.00
2022-08-23T01:50:12.751Z,0.00
2022-08-23T01:51:12.770Z,0.00
2022-08-23T01:52:13.438Z,0.00
2022-08-23T01:53:12.726Z,0.00
2022-08-23T01:54:19.438Z,0.00
2022-08-23T01:55:12.712Z,0.00
2022-08-23T01:56:12.690Z,0.00
2022-08-23T01:57:12.970Z,0.00
2022-08-23T01:58:12.687Z,0.00
2022-08-23T01:59:12.668Z,0.00
2022-08-23T02:00:12.653Z,0.00
2022-08-23T02:01:12.688Z,0.00
2022-08-23T02:02:12.629Z,0.00
2022-08-23T02:03:19.449Z,0.00
2022-08-23T02:04:12.620Z,0.00
2022-08-23T02:05:18.382Z,0.00
2022-08-23T02:06:12.591Z,0.00
2022-08-23T02:07:12.577Z,0.00
2022-08-23T02:08:12.563Z,0.00
2022-08-23T02:09:17.886Z,0.00
2022-08-23T02:10:13.546Z,0.00
2022-08-23T02:11:12.624Z,0.00
2022-08-23T02:12:12.525Z,0.00
2022-08-23T02:13:12.523Z,0.00
2022-08-23T02:14:13.438Z,0.00
2022-08-23T02:15:12.522Z,0.00
2022-08-23T02:16:15.446Z,0.00
2022-08-23T02:17:12.466Z,0.00
2022-08-23T02:18:13.466Z,0.00
2022-08-23T02:19:12.457Z,0.00
2022-08-23T02:20:12.459Z,0.00
2022-08-23T02:21:12.430Z,0.00
2022-08-23T02:22:12.938Z,0.00
2022-08-23T02:23:12.403Z,0.00
2022-08-23T02:24:12.388Z,0.00
2022-08-23T02:25:12.383Z,0.00
2022-08-23T02:26:12.468Z,0.00
2022-08-23T02:27:12.355Z,0.00
2022-08-23T02:28:12.345Z,0.00
2022-08-23T02:29:12.339Z,0.00
2022-08-23T02:30:12.332Z,0.00
2022-08-23T02:31:12.308Z,0.00
2022-08-23T02:32:12.471Z,0.00
2022-08-23T02:33:12.949Z,0.00
2022-08-23T02:34:14.944Z,0.00
2022-08-23T02:35:18.953Z,0.00
2022-08-23T02:36:12.304Z,0.00
2022-08-23T02:37:12.252Z,0.00
2022-08-23T02:38:12.257Z,0.00
2022-08-23T02:39:12.231Z,0.00
2022-08-23T02:40:12.618Z,0.00
2022-08-23T02:41:12.207Z,0.00
2022-08-23T02:42:12.944Z,0.00
2022-08-23T02:43:12.942Z,0.00
2022-08-23T02:44:13.228Z,0.00
2022-08-23T02:45:12.157Z,0.00
2022-08-23T02:46:12.150Z,0.00
2022-08-23T02:47:12.124Z,0.00
2022-08-23T02:48:12.153Z,0.00
2022-08-23T02:49:12.107Z,0.00
2022-08-23T02:50:12.134Z,0.00
2022-08-23T02:51:12.088Z,0.00
2022-08-23T02:52:12.089Z,0.00
2022-08-23T02:53:12.066Z,0.00
2022-08-23T02:54:12.060Z,0.00
2022-08-23T02:55:12.062Z,0.00
2022-08-23T02:56:17.084Z,0.00
2022-08-23T02:57:13.038Z,0.00
2022-08-23T02:58:12.019Z,0.00
2022-08-23T02:59:12.005Z,0.00
2022-08-23T03:00:12.000Z,0.00
2022-08-23T03:01:11.994Z,0.00
2022-08-23T03:02:12.057Z,0.00
2022-08-23T03:03:11.961Z,0.00
2022-08-23T03:04:11.945Z,0.00
2022-08-23T03:05:11.934Z,0.00
2022-08-23T03:06:24.651Z,0.00
2022-08-23T03:07:12.910Z,0.00
2022-08-23T03:08:14.456Z,0.00
2022-08-23T03:09:11.885Z,0.00
2022-08-23T03:10:11.932Z,0.00
2022-08-23T03:11:11.866Z,0.00
2022-08-23T03:12:12.446Z,0.00
2022-08-23T03:13:14.448Z,0.00
2022-08-23T03:14:18.463Z,0.00
2022-08-23T03:15:14.457Z,0.00
2022-08-23T03:16:11.982Z,0.00
2022-08-23T03:17:12.463Z,0.00
2022-08-23T03:18:11.808Z,0.00
2022-08-23T03:19:11.782Z,0.00
2022-08-23T03:20:11.782Z,0.00
2022-08-23T03:21:11.761Z,0.00
2022-08-23T03:22:11.765Z,0.00
2022-08-23T03:23:11.748Z,0.00
2022-08-23T03:24:11.984Z,0.00
2022-08-23T03:25:11.720Z,0.00
2022-08-23T03:26:11.711Z,0.00
2022-08-23T03:27:11.704Z,0.00
2022-08-23T03:28:11.692Z,0.00
2022-08-23T03:29:11.686Z,0.00
2022-08-23T03:30:19.162Z,0.00
2022-08-23T03:31:12.663Z,0.00
2022-08-23T03:32:11.671Z,0.00
2022-08-23T03:33:11.626Z,0.00
2022-08-23T03:34:11.630Z,0.00
2022-08-23T03:35:14.411Z,0.00
2022-08-23T03:36:12.463Z,0.00
2022-08-23T03:37:11.597Z,0.00
2022-08-23T03:38:11.982Z,0.00
2022-08-23T03:39:12.461Z,0.00
2022-08-23T03:40:11.659Z,0.00
2022-08-23T03:41:11.547Z,0.00
2022-08-23T03:42:12.459Z,0.00
2022-08-23T03:43:11.518Z,0.00
2022-08-23T03:44:11.527Z,0.00
2022-08-23T03:45:18.465Z,0.00
2022-08-23T03:46:18.459Z,0.00
2022-08-23T03:47:14.469Z,0.00
2022-08-23T03:48:14.458Z,0.00
2022-08-23T03:49:11.494Z,0.00
2022-08-23T03:50:11.457Z,0.00
2022-08-23T03:51:13.963Z,0.00
2022-08-23T03:52:11.969Z,0.00
2022-08-23T03:53:12.121Z,0.00
2022-08-23T03:54:11.422Z,0.00
2022-08-23T03:55:11.387Z,0.00
2022-08-23T03:56:11.424Z,0.00
2022-08-23T03:57:11.369Z,4.00
2022-08-23T03:58:11.367Z,4.00
2022-08-23T03:59:11.338Z,4.00
2022-08-23T04:00:11.361Z,0.00
2022-08-23T04:01:11.320Z,4.00
2022-08-23T04:02:11.396Z,4.00
2022-08-23T04:03:11.320Z,4.00
2022-08-23T04:04:11.965Z,4.00
2022-08-23T04:05:11.301Z,4.00
2022-08-23T04:06:11.288Z,8.00
2022-08-23T04:07:11.286Z,8.00
2022-08-23T04:08:11.246Z,8.00
2022-08-23T04:09:11.247Z,12.00
2022-08-23T04:10:11.240Z,12.00
2022-08-23T04:11:11.214Z,16.00
2022-08-23T04:12:17.552Z,20.00
2022-08-23T04:13:11.965Z,20.00
2022-08-23T04:14:11.202Z,24.00
2022-08-23T04:15:13.986Z,28.00
2022-08-23T04:16:17.970Z,32.00
2022-08-23T04:17:11.173Z,36.00
2022-08-23T04:18:11.154Z,40.00
2022-08-23T04:19:11.129Z,44.00
2022-08-23T04:20:11.125Z,52.00
2022-08-23T04:21:11.129Z,56.00
2022-08-23T04:22:11.096Z,64.00
2022-08-23T04:23:11.081Z,68.00
2022-08-23T04:24:11.071Z,80.00
2022-08-23T04:25:14.082Z,84.00
2022-08-23T04:26:12.492Z,92.00
2022-08-23T04:27:11.039Z,100.00
2022-08-23T04:28:11.032Z,108.00
2022-08-23T04:29:11.010Z,120.00
2022-08-23T04:30:11.999Z,128.00
2022-08-23T04:31:11.009Z,136.00
2022-08-23T04:32:12.108Z,152.00
2022-08-23T04:33:13.296Z,160.00
2022-08-23T04:34:11.984Z,172.00
2022-08-23T04:35:10.968Z,184.00
2022-08-23T04:36:10.956Z,196.00
2022-08-23T04:37:10.931Z,208.00
2022-08-23T04:38:24.752Z,220.00
2022-08-23T04:39:11.906Z,236.00
2022-08-23T04:40:11.010Z,248.00
2022-08-23T04:41:11.388Z,260.00
2022-08-23T04:42:14.680Z,272.00
2022-08-23T04:43:10.857Z,288.00
2022-08-23T04:44:10.856Z,300.00
2022-08-23T04:45:10.839Z,316.00
2022-08-23T04:46:10.857Z,324.00
2022-08-23T04:47:10.813Z,340.00
2022-08-23T04:48:12.006Z,356.00
2022-08-23T04:49:10.822Z,372.00
2022-08-23T04:50:10.789Z,388.00
2022-08-23T04:51:10.785Z,404.00
2022-08-23T04:52:18.614Z,416.00
2022-08-23T04:53:11.778Z,436.00
2022-08-23T04:54:10.743Z,452.00
2022-08-23T04:55:12.469Z,464.00
2022-08-23T04:56:10.715Z,480.00
2022-08-23T04:57:10.714Z,500.00
2022-08-23T04:58:10.715Z,512.00
2022-08-23T04:59:12.979Z,528.00
2022-08-23T05:00:10.688Z,540.00
2022-08-23T05:01:13.508Z,560.00
2022-08-23T05:02:11.700Z,576.00
2022-08-23T05:03:10.638Z,588.00
2022-08-23T05:04:10.651Z,608.00
2022-08-23T05:05:10.640Z,624.00
2022-08-23T05:06:10.624Z,636.00
2022-08-23T05:07:10.595Z,652.00
2022-08-23T05:08:10.598Z,668.00
2022-08-23T05:09:10.603Z,684.00
2022-08-23T05:10:10.594Z,696.00
2022-08-23T05:11:10.564Z,716.00
2022-08-23T05:12:13.467Z,728.00
2022-08-23T05:13:10.540Z,744.00
2022-08-23T05:14:10.527Z,756.00
2022-08-23T05:15:11.010Z,772.00
2022-08-23T05:16:13.487Z,784.00
2022-08-23T05:17:10.499Z,800.00
2022-08-23T05:18:10.486Z,812.00
2022-08-23T05:19:12.977Z,828.00
2022-08-23T05:20:12.974Z,844.00
2022-08-23T05:21:10.467Z,856.00
2022-08-23T05:22:10.442Z,868.00
2022-08-23T05:23:10.427Z,884.00
2022-08-23T05:24:13.829Z,900.00
2022-08-23T05:25:10.972Z,912.00
2022-08-23T05:26:10.402Z,928.00
2022-08-23T05:27:13.483Z,944.00
2022-08-23T05:28:12.973Z,952.00
2022-08-23T05:29:10.372Z,968.00
2022-08-23T05:30:15.114Z,980.00
2022-08-23T05:31:11.903Z,988.00
2022-08-23T05:32:10.349Z,996.00
2022-08-23T05:33:10.311Z,1004.00
2022-08-23T05:34:10.514Z,1016.00
2022-08-23T05:35:10.299Z,1024.00
2022-08-23T05:36:10.287Z,1028.00
2022-08-23T05:37:10.279Z,1040.00
2022-08-23T05:38:10.270Z,1048.00
2022-08-23T05:39:10.505Z,1064.00
2022-08-23T05:40:10.622Z,1068.00
2022-08-23T05:41:10.988Z,1076.00
2022-08-23T05:42:10.215Z,1084.00
2022-08-23T05:43:10.212Z,1096.00
2022-08-23T05:44:12.977Z,1104.00
2022-08-23T05:45:10.195Z,1112.00
2022-08-23T05:46:13.473Z,1120.00
2022-08-23T05:47:11.598Z,1132.00
2022-08-23T05:48:10.152Z,1144.00
2022-08-23T05:49:12.978Z,1152.00
2022-08-23T05:50:15.492Z,1160.00
2022-08-23T05:51:10.124Z,1172.00
2022-08-23T05:52:12.981Z,1180.00
2022-08-23T05:53:10.123Z,1192.00
2022-08-23T05:54:10.978Z,1204.00
2022-08-23T05:55:10.082Z,1208.00
2022-08-23T05:56:10.508Z,1220.00
2022-08-23T05:57:11.008Z,1224.00
2022-08-23T05:58:10.037Z,1232.00
2022-08-23T05:59:12.454Z,1244.00
2022-08-23T06:00:12.999Z,1248.00
2022-08-23T06:01:10.044Z,1260.00
2022-08-23T06:02:10.001Z,1268.00
2022-08-23T06:03:10.004Z,1276.00
2022-08-23T06:04:24.480Z,1284.00
2022-08-23T06:05:12.484Z,1292.00
2022-08-23T06:06:09.963Z,1300.00
2022-08-23T06:07:10.008Z,1304.00
2022-08-23T06:08:09.965Z,1312.00
2022-08-23T06:09:16.473Z,1316.00
2022-08-23T06:10:16.201Z,1320.00
2022-08-23T06:11:09.896Z,1324.00
2022-08-23T06:12:09.897Z,1328.00
2022-08-23T06:13:09.880Z,1332.00
2022-08-23T06:14:09.944Z,1340.00
2022-08-23T06:15:09.885Z,1344.00
2022-08-23T06:16:14.336Z,1352.00
2022-08-23T06:17:10.836Z,1360.00
2022-08-23T06:18:16.485Z,1364.00
2022-08-23T06:19:10.009Z,1368.00
2022-08-23T06:20:09.869Z,1376.00
2022-08-23T06:21:12.485Z,1388.00
2022-08-23T06:22:12.482Z,1392.00
2022-08-23T06:23:11.219Z,1400.00
2022-08-23T06:24:12.489Z,1404.00
2022-08-23T06:25:10.057Z,1416.00
2022-08-23T06:26:09.753Z,1420.00
2022-08-23T06:27:09.760Z,1428.00
2022-08-23T06:28:10.506Z,1436.00
2022-08-23T06:29:09.819Z,1444.00
2022-08-23T06:30:11.934Z,1448.00
2022-08-23T06:31:09.748Z,1452.00
2022-08-23T06:32:09.755Z,1456.00
2022-08-23T06:33:10.500Z,1460.00
2022-08-23T06:34:09.788Z,1468.00
2022-08-23T06:35:29.252Z,1472.00
2022-08-23T06:36:13.481Z,1476.00
2022-08-23T06:37:09.653Z,1484.00
2022-08-23T06:38:09.610Z,1488.00
2022-08-23T06:39:09.606Z,1500.00
2022-08-23T06:40:09.651Z,1500.00
2022-08-23T06:41:09.566Z,1504.00
2022-08-23T06:42:36.592Z,1504.00
2022-08-23T06:43:10.558Z,1512.00
2022-08-23T06:44:10.509Z,1524.00
2022-08-23T06:45:10.484Z,1524.00
2022-08-23T06:46:12.502Z,1532.00
2022-08-23T06:47:09.533Z,1528.00
2022-08-23T06:48:09.535Z,1532.00
2022-08-23T06:49:09.995Z,1536.00
2022-08-23T06:50:09.992Z,1536.00
2022-08-23T06:51:09.463Z,1540.00
2022-08-23T06:52:09.454Z,1544.00
2022-08-23T06:53:10.062Z,1552.00
2022-08-23T06:54:09.428Z,1552.00
2022-08-23T06:55:13.628Z,1560.00
2022-08-23T06:56:09.994Z,1572.00
2022-08-23T06:57:09.398Z,1588.00
2022-08-23T06:58:15.989Z,1572.00
2022-08-23T06:59:09.396Z,1576.00
2022-08-23T07:00:09.525Z,1580.00
2022-08-23T07:01:23.276Z,1580.00
2022-08-23T07:02:10.422Z,1584.00
2022-08-23T07:03:09.432Z,1588.00
2022-08-23T07:04:09.321Z,1592.00
2022-08-23T07:05:09.339Z,1592.00
2022-08-23T07:06:09.512Z,1600.00
2022-08-23T07:07:11.542Z,1604.00
2022-08-23T07:08:09.995Z,1608.00
2022-08-23T07:09:09.265Z,1616.00
2022-08-23T07:10:09.522Z,1620.00
2022-08-23T07:11:09.251Z,1624.00
2022-08-23T07:12:09.245Z,1628.00
2022-08-23T07:13:09.216Z,1628.00
2022-08-23T07:14:11.996Z,1636.00
2022-08-23T07:15:15.983Z,1636.00
2022-08-23T07:16:09.248Z,1644.00
2022-08-23T07:17:09.212Z,1652.00
2022-08-23T07:18:13.483Z,1660.00
2022-08-23T07:19:09.211Z,1664.00
2022-08-23T07:20:11.998Z,1672.00
2022-08-23T07:21:09.146Z,1672.00
2022-08-23T07:22:09.133Z,1676.00
2022-08-23T07:23:09.135Z,1680.00
2022-08-23T07:24:09.109Z,1688.00
2022-08-23T07:25:09.991Z,1700.00
2022-08-23T07:26:09.087Z,1720.00
2022-08-23T07:27:09.053Z,1732.00
2022-08-23T07:28:11.688Z,1736.00
2022-08-23T07:29:09.522Z,1732.00
2022-08-23T07:30:09.047Z,1728.00
2022-08-23T07:31:14.744Z,1724.00
2022-08-23T07:32:10.128Z,1720.00
2022-08-23T07:33:10.059Z,1720.00
2022-08-23T07:34:08.993Z,1716.00
2022-08-23T07:35:08.984Z,1716.00
2022-08-23T07:36:09.493Z,1712.00
2022-08-23T07:37:15.448Z,1716.00
2022-08-23T07:38:09.967Z,1716.00
2022-08-23T07:39:09.500Z,1720.00
2022-08-23T07:40:09.505Z,1716.00
2022-08-23T07:41:09.921Z,1716.00
2022-08-23T07:42:22.910Z,1716.00
2022-08-23T07:43:24.493Z,1716.00
2022-08-23T07:44:08.912Z,1720.00
2022-08-23T07:45:10.015Z,1720.00
2022-08-23T07:46:09.515Z,1724.00
2022-08-23T07:47:08.869Z,1724.00
2022-08-23T07:48:23.527Z,1728.00
2022-08-23T07:49:09.824Z,1728.00
2022-08-23T07:50:09.509Z,1736.00
2022-08-23T07:51:08.824Z,1736.00
2022-08-23T07:52:08.787Z,1736.00
2022-08-23T07:53:09.512Z,1736.00
2022-08-23T07:54:08.801Z,1736.00
2022-08-23T07:55:08.778Z,1740.00
2022-08-23T07:56:08.747Z,1740.00
2022-08-23T07:57:09.503Z,1744.00
2022-08-23T07:58:08.725Z,1744.00
2022-08-23T07:59:34.558Z,1748.00
2022-08-23T08:00:15.502Z,1748.00
2022-08-23T08:01:08.696Z,1748.00
2022-08-23T08:02:09.827Z,1752.00
2022-08-23T08:03:09.156Z,1756.00
2022-08-23T08:04:09.034Z,1756.00
2022-08-23T08:05:08.686Z,1744.00
2022-08-23T08:06:08.644Z,1760.00
2022-08-23T08:07:19.220Z,1760.00
2022-08-23T08:08:09.617Z,1760.00
2022-08-23T08:09:08.606Z,1760.00
2022-08-23T08:10:08.624Z,1764.00
2022-08-23T08:11:09.501Z,1768.00
2022-08-23T08:12:08.580Z,1768.00
2022-08-23T08:13:08.564Z,1764.00
2022-08-23T08:14:09.032Z,1768.00
2022-08-23T08:15:09.036Z,1772.00
2022-08-23T08:16:11.599Z,1772.00
2022-08-23T08:17:08.517Z,1776.00
2022-08-23T08:18:08.515Z,1780.00
2022-08-23T08:19:08.500Z,1780.00
2022-08-23T08:20:08.496Z,1784.00
2022-08-23T08:21:08.497Z,1784.00
2022-08-23T08:22:08.465Z,1792.00
2022-08-23T08:23:11.000Z,1792.00
2022-08-23T08:24:08.453Z,1796.00
2022-08-23T08:25:08.449Z,1796.00
2022-08-23T08:26:08.426Z,1800.00
2022-08-23T08:27:08.420Z,1800.00
2022-08-23T08:28:11.585Z,1800.00
2022-08-23T08:29:10.507Z,1800.00
2022-08-23T08:30:08.549Z,1804.00
2022-08-23T08:31:08.426Z,1804.00
2022-08-23T08:32:08.386Z,1808.00
2022-08-23T08:33:09.366Z,1808.00
2022-08-23T08:34:08.332Z,1812.00
2022-08-23T08:35:08.366Z,1816.00
2022-08-23T08:36:08.537Z,1816.00
2022-08-23T08:37:08.309Z,1820.00
2022-08-23T08:38:09.006Z,1824.00
2022-08-23T08:39:08.280Z,1828.00
2022-08-23T08:40:08.296Z,1832.00
2022-08-23T08:41:08.532Z,1832.00
2022-08-23T08:42:08.249Z,1836.00
2022-08-23T08:43:09.004Z,1836.00
2022-08-23T08:44:08.227Z,1832.00
2022-08-23T08:45:08.234Z,1836.00
2022-08-23T08:46:08.245Z,1832.00
2022-08-23T08:47:08.202Z,1836.00
2022-08-23T08:48:12.704Z,1836.00
2022-08-23T08:49:09.257Z,1840.00
2022-08-23T08:50:08.162Z,1840.00
2022-08-23T08:51:08.541Z,1844.00
2022-08-23T08:52:08.163Z,1844.00
2022-08-23T08:53:08.127Z,1848.00
2022-08-23T08:54:08.148Z,1844.00
2022-08-23T08:55:08.104Z,1840.00
2022-08-23T08:56:11.015Z,1848.00
2022-08-23T08:57:10.014Z,1844.00
2022-08-23T08:58:08.104Z,1848.00
2022-08-23T08:59:08.065Z,1856.00
2022-08-23T09:00:08.061Z,1864.00
2022-08-23T09:01:08.041Z,1864.00
2022-08-23T09:02:16.933Z,1868.00
2022-08-23T09:03:09.077Z,1876.00
2022-08-23T09:04:08.011Z,1880.00
2022-08-23T09:05:07.995Z,1888.00
2022-08-23T09:06:07.987Z,1896.00
2022-08-23T09:07:07.977Z,1904.00
2022-08-23T09:08:08.050Z,1912.00
2022-08-23T09:09:07.983Z,1908.00
2022-08-23T09:10:07.952Z,1916.00
2022-08-23T09:11:14.545Z,1916.00
2022-08-23T09:12:07.923Z,1916.00
2022-08-23T09:13:08.542Z,1928.00
2022-08-23T09:14:07.898Z,1932.00
2022-08-23T09:15:07.918Z,1896.00
2022-08-23T09:16:07.938Z,1808.00
2022-08-23T09:17:08.507Z,1980.00
2022-08-23T09:18:07.852Z,2056.00
2022-08-23T09:19:08.524Z,2128.00
2022-08-23T09:20:07.864Z,2212.00
2022-08-23T09:21:07.833Z,2304.00
2022-08-23T09:22:07.813Z,2416.00
2022-08-23T09:23:07.801Z,2344.00
2022-08-23T09:24:07.786Z,2564.00
2022-08-23T09:25:10.221Z,2676.00
2022-08-23T09:26:07.766Z,2732.00
2022-08-23T09:27:07.765Z,2804.00
2022-08-23T09:28:08.524Z,2860.00
2022-08-23T09:29:07.751Z,2920.00
2022-08-23T09:30:07.756Z,2960.00
2022-08-23T09:31:08.834Z,2996.00
2022-08-23T09:32:08.520Z,3028.00
2022-08-23T09:33:08.696Z,3052.00
2022-08-23T09:34:07.687Z,3080.00
2022-08-23T09:35:07.691Z,3104.00
2022-08-23T09:36:08.422Z,3120.00
2022-08-23T09:37:10.521Z,3136.00
2022-08-23T09:38:11.355Z,3140.00
2022-08-23T09:39:07.674Z,3140.00
2022-08-23T09:40:07.659Z,3148.00
2022-08-23T09:41:07.633Z,3148.00
2022-08-23T09:42:07.596Z,3140.00
2022-08-23T09:43:07.589Z,3148.00
2022-08-23T09:44:08.516Z,3144.00
2022-08-23T09:45:07.587Z,3140.00
2022-08-23T09:46:14.569Z,3136.00
2022-08-23T09:47:08.057Z,3140.00
2022-08-23T09:48:07.534Z,3132.00
2022-08-23T09:49:10.525Z,3120.00
2022-08-23T09:50:07.529Z,3108.00
2022-08-23T09:51:07.528Z,3100.00
2022-08-23T09:52:07.484Z,3084.00
2022-08-23T09:53:07.510Z,3068.00
2022-08-23T09:54:07.468Z,3060.00
2022-08-23T09:55:14.026Z,3040.00
2022-08-23T09:56:07.449Z,3032.00
2022-08-23T09:57:07.462Z,3016.00
2022-08-23T09:58:07.558Z,3012.00
2022-08-23T09:59:08.024Z,3000.00
2022-08-23T10:00:07.501Z,2996.00
2022-08-23T10:01:07.438Z,2988.00
2022-08-23T10:02:07.455Z,2984.00
2022-08-23T10:03:07.660Z,2972.00
2022-08-23T10:04:07.560Z,2960.00
2022-08-23T10:05:07.981Z,2948.00
2022-08-23T10:06:09.022Z,2944.00
2022-08-23T10:07:07.332Z,2932.00
2022-08-23T10:08:14.009Z,2924.00
2022-08-23T10:09:07.324Z,2916.00
2022-08-23T10:10:07.291Z,2916.00
2022-08-23T10:11:08.017Z,2912.00
2022-08-23T10:12:07.575Z,2908.00
2022-08-23T10:13:08.033Z,2900.00
2022-08-23T10:14:08.026Z,2896.00
2022-08-23T10:15:08.549Z,2892.00
2022-08-23T10:16:08.069Z,2896.00
2022-08-23T10:17:07.212Z,2904.00
2022-08-23T10:18:07.201Z,2904.00
2022-08-23T10:19:07.192Z,2908.00
2022-08-23T10:20:07.194Z,2920.00
2022-08-23T10:21:07.179Z,2924.00
2022-08-23T10:22:10.029Z,2932.00
2022-08-23T10:23:07.155Z,2916.00
2022-08-23T10:24:09.062Z,2828.00
2022-08-23T10:25:08.032Z,2712.00
2022-08-23T10:26:07.110Z,2704.00
2022-08-23T10:27:08.030Z,2804.00
2022-08-23T10:28:07.096Z,2684.00
2022-08-23T10:29:07.090Z,2760.00
2022-08-23T10:30:07.090Z,2608.00
2022-08-23T10:31:07.635Z,2884.00
2022-08-23T10:32:07.074Z,2920.00
2022-08-23T10:33:08.081Z,2964.00
2022-08-23T10:34:09.527Z,2964.00
2022-08-23T10:35:07.018Z,2968.00
2022-08-23T10:36:07.019Z,2976.00
2022-08-23T10:37:07.028Z,2992.00
2022-08-23T10:38:09.530Z,3012.00
2022-08-23T10:39:06.990Z,3048.00
2022-08-23T10:40:09.546Z,3072.00
2022-08-23T10:41:07.535Z,3104.00
2022-08-23T10:42:09.535Z,3112.00
2022-08-23T10:43:06.952Z,2640.00
2022-08-23T10:44:06.927Z,2760.00
2022-08-23T10:45:06.914Z,2772.00
2022-08-23T10:46:07.647Z,2792.00
2022-08-23T10:47:07.535Z,2720.00
2022-08-23T10:48:06.920Z,2560.00
2022-08-23T10:49:06.869Z,2544.00
2022-08-23T10:50:06.854Z,2488.00
2022-08-23T10:51:06.853Z,2316.00
2022-08-23T10:52:06.835Z,2336.00
2022-08-23T10:53:07.545Z,2264.00
2022-08-23T10:54:06.836Z,2240.00
2022-08-23T10:55:06.809Z,2168.00
2022-08-23T10:56:13.540Z,2176.00
2022-08-23T10:57:06.784Z,2172.00
2022-08-23T10:58:06.769Z,2256.00
2022-08-23T10:59:06.779Z,2344.00
2022-08-23T11:00:07.532Z,2528.00
2022-08-23T11:01:06.783Z,2592.00
2022-08-23T11:02:09.598Z,2756.00
2022-08-23T11:03:06.723Z,2812.00
2022-08-23T11:04:06.739Z,2756.00
2022-08-23T11:05:07.754Z,2764.00
2022-08-23T11:06:07.548Z,2728.00
2022-08-23T11:07:06.673Z,2560.00
2022-08-23T11:08:06.677Z,2436.00
2022-08-23T11:09:09.540Z,2588.00
2022-08-23T11:10:06.677Z,2824.00
2022-08-23T11:11:07.632Z,2900.00
2022-08-23T11:12:11.079Z,2976.00
2022-08-23T11:13:06.627Z,2996.00
2022-08-23T11:14:06.603Z,2940.00
2022-08-23T11:15:06.612Z,2936.00
2022-08-23T11:16:06.612Z,2984.00
2022-08-23T11:17:06.565Z,3044.00
2022-08-23T11:18:06.562Z,3172.00
2022-08-23T11:19:09.545Z,3196.00
2022-08-23T11:20:27.567Z,3188.00
2022-08-23T11:21:06.532Z,3200.00
2022-08-23T11:22:07.531Z,3384.00
2022-08-23T11:23:06.504Z,3508.00
2022-08-23T11:24:06.519Z,3492.00
2022-08-23T11:25:06.505Z,3740.00
2022-08-23T11:26:06.480Z,3732.00
2022-08-23T11:27:07.229Z,3592.00
2022-08-23T11:28:07.048Z,3428.00
2022-08-23T11:29:06.439Z,3636.00
2022-08-23T11:30:06.438Z,3428.00
2022-08-23T11:31:06.452Z,3456.00
2022-08-23T11:32:06.450Z,3652.00
2022-08-23T11:33:07.040Z,3176.00
2022-08-23T11:34:06.593Z,3540.00
2022-08-23T11:35:09.060Z,3840.00
2022-08-23T11:36:07.048Z,4072.00
2022-08-23T11:37:06.359Z,4192.00
2022-08-23T11:38:08.086Z,3896.00
2022-08-23T11:39:13.043Z,3796.00
2022-08-23T11:40:07.399Z,3840.00
2022-08-23T11:41:13.048Z,3820.00
2022-08-23T11:42:07.052Z,3800.00
2022-08-23T11:43:06.312Z,3904.00
2022-08-23T11:44:06.592Z,3756.00
2022-08-23T11:45:06.267Z,3736.00
2022-08-23T11:46:21.065Z,3856.00
2022-08-23T11:47:06.581Z,4028.00
2022-08-23T11:48:09.059Z,4080.00
2022-08-23T11:49:06.245Z,4072.00
2022-08-23T11:50:06.589Z,4084.00
2022-08-23T11:51:06.222Z,3768.00
2022-08-23T11:52:07.052Z,3720.00
2022-08-23T11:53:06.184Z,3740.00
2022-08-23T11:54:07.059Z,3624.00
2022-08-23T11:55:09.581Z,3396.00
2022-08-23T11:56:07.050Z,3664.00
2022-08-23T11:57:06.140Z,4552.00
2022-08-23T11:58:07.065Z,4704.00
2022-08-23T11:59:08.677Z,4528.00
2022-08-23T12:00:07.096Z,4376.00
2022-08-23T12:01:06.100Z,4528.00
2022-08-23T12:02:07.101Z,4732.00
2022-08-23T12:03:09.155Z,5524.00
2022-08-23T12:04:07.235Z,5596.00
2022-08-23T12:05:06.496Z,5288.00
2022-08-23T12:06:12.645Z,5416.00
2022-08-23T12:07:06.554Z,5352.00
2022-08-23T12:08:06.030Z,5256.00
2022-08-23T12:09:06.556Z,5648.00
2022-08-23T12:10:06.006Z,6052.00
2022-08-23T12:11:16.588Z,6100.00
2022-08-23T12:12:06.726Z,6260.00
2022-08-23T12:13:06.573Z,6660.00
2022-08-23T12:14:06.003Z,6520.00
2022-08-23T12:15:06.639Z,6796.00
2022-08-23T12:16:06.078Z,6780.00
2022-08-23T12:17:06.575Z,6540.00
2022-08-23T12:18:05.920Z,6612.00
2022-08-23T12:19:06.602Z,6504.00
2022-08-23T12:20:16.527Z,6368.00
2022-08-23T12:21:09.556Z,6284.00
2022-08-23T12:22:06.565Z,5704.00
2022-08-23T12:23:06.654Z,6768.00
2022-08-23T12:24:06.576Z,6648.00
2022-08-23T12:25:05.875Z,6352.00
2022-08-23T12:26:06.556Z,6272.00
2022-08-23T12:27:06.558Z,5724.00
2022-08-23T12:28:05.842Z,6692.00
2022-08-23T12:29:06.561Z,7216.00
2022-08-23T12:30:05.812Z,7264.00
2022-08-23T12:31:07.856Z,7308.00